Data for 09/23/2016

Time Sea-Level Adjusted Pressure Absolute Pressure Temperature Relative Humidity Dew Point   
(mb) (inHg) (mb) (inHg) (C) (F) (%) (C) (F)
00:05 1014 29.94 844 24.92 9.1 48.3 92 7.9 46.2
00:10 1014 29.94 844 24.92 9 48.2 92 7.8 46.1
00:15 1014 29.94 843 24.89 8.9 48 92 7.7 45.8
00:20 1014 29.94 843 24.89 8.8 47.8 92 7.6 45.6
00:25 1014 29.94 843 24.89 8.8 47.8 92 7.6 45.6
00:30 1014 29.94 843 24.89 8.7 47.7 92 7.4 45.4
00:35 1014 29.94 843 24.89 8.7 47.6 91 7.4 45.3
00:40 1014 29.94 843 24.89 8.6 47.5 92 7.3 45.2
00:45 1014 29.94 843 24.89 8.6 47.5 92 7.4 45.3
00:50 1014 29.94 843 24.89 8.6 47.4 92 7.3 45.2
00:55 1014 29.94 843 24.89 8.6 47.6 92 7.4 45.3
01:00 1014 29.94 843 24.89 8.7 47.6 91 7.4 45.3
01:05 1014 29.94 843 24.89 8.7 47.7 91 7.4 45.3
01:10 1014 29.94 843 24.89 8.7 47.7 91 7.4 45.3
01:15 1014 29.94 843 24.89 8.9 48 90 7.3 45.1
01:20 1014 29.94 843 24.89 9 48.1 89 7.2 45
01:25 1014 29.94 843 24.89 9.1 48.3 89 7.4 45.3
01:30 1014 29.94 843 24.89 9.1 48.3 89 7.3 45.2
01:35 1014 29.94 843 24.89 9 48.3 89 7.3 45.2
01:40 1014 29.94 843 24.89 9 48.2 89 7.3 45.2
01:45 1014 29.94 843 24.89 8.9 48.1 89 7.3 45.1
01:50 1014 29.94 843 24.89 8.9 48.1 90 7.3 45.2
01:55 1014 29.94 843 24.89 8.9 48.1 90 7.3 45.2
02:00 1014 29.94 843 24.89 9 48.2 90 7.4 45.2
02:05 1014 29.94 843 24.89 9 48.2 89 7.4 45.2
02:10 1014 29.94 843 24.89 8.9 48 90 7.4 45.3
02:15 1014 29.94 843 24.89 8.9 47.9 90 7.4 45.3
02:20 1014 29.94 843 24.89 8.8 47.8 90 7.3 45.1
02:25 1014 29.94 843 24.89 8.7 47.7 91 7.3 45.1
02:30 1014 29.94 843 24.89 8.8 47.8 91 7.3 45.2
02:35 1014 29.94 843 24.89 8.8 47.8 91 7.3 45.1
02:40 1014 29.94 843 24.89 8.7 47.7 91 7.3 45.1
02:45 1014 29.94 843 24.89 8.7 47.7 91 7.3 45.2
02:50 1014 29.94 843 24.89 8.7 47.7 91 7.3 45.2
02:55 1014 29.94 843 24.89 8.7 47.7 91 7.3 45.2
03:00 1014 29.94 843 24.89 8.7 47.7 91 7.4 45.2
03:05 1014 29.94 843 24.89 8.7 47.7 91 7.4 45.3
03:10 1014 29.94 843 24.89 8.7 47.7 91 7.4 45.3
03:15 1014 29.94 843 24.89 8.7 47.6 92 7.4 45.3
03:20 1014 29.94 843 24.89 8.6 47.6 92 7.4 45.3
03:25 1014 29.94 843 24.89 8.6 47.5 92 7.4 45.3
03:30 1014 29.94 843 24.89 8.7 47.6 92 7.4 45.4
03:35 1014 29.94 843 24.89 8.7 47.7 92 7.5 45.5
03:40 1014 29.94 843 24.89 8.7 47.7 92 7.5 45.5
03:45 1014 29.94 843 24.89 8.8 47.8 92 7.5 45.6
03:50 1013 29.91 843 24.89 8.8 47.8 92 7.6 45.6
03:55 1013 29.91 843 24.89 8.8 47.8 92 7.6 45.6
04:00 1014 29.94 843 24.89 8.8 47.8 92 7.6 45.6
04:05 1014 29.94 843 24.89 8.7 47.7 92 7.6 45.6
04:10 1014 29.94 843 24.89 8.7 47.6 92 7.5 45.5
04:15 1014 29.94 843 24.89 8.7 47.6 92 7.5 45.4
04:20 1014 29.94 843 24.89 8.5 47.4 92 7.3 45.2
04:25 1014 29.94 843 24.89 8.5 47.2 92 7.3 45.1
04:30 1014 29.94 843 24.89 8.4 47.2 92 7.2 45
04:35 1014 29.94 843 24.89 8.4 47.2 92 7.2 45
04:40 1014 29.94 843 24.89 8.4 47.2 92 7.2 45
04:45 1014 29.94 843 24.89 8.4 47.2 92 7.2 45
04:50 1014 29.94 843 24.89 8.4 47.1 92 7.2 44.9
04:55 1014 29.94 843 24.89 8.3 46.9 92 7.1 44.7
05:00 1014 29.94 843 24.89 8.2 46.8 92 7 44.7
05:05 1014 29.94 843 24.89 8.2 46.7 92 7 44.6
05:10 1014 29.94 843 24.89 8.1 46.7 92 7 44.6
05:15 1014 29.94 843 24.89 8.1 46.6 92 7 44.5
05:20 1014 29.94 843 24.89 8.1 46.6 92 7 44.5
05:25 1014 29.94 843 24.89 8.1 46.5 93 6.9 44.5
05:30 1014 29.94 843 24.89 8.1 46.5 93 6.9 44.5
05:35 1014 29.94 843 24.89 8.1 46.5 93 7 44.5
05:40 1014 29.94 843 24.89 8 46.4 92 6.9 44.3
05:45 1014 29.94 843 24.89 8 46.3 93 6.8 44.3
05:50 1014 29.94 844 24.92 8 46.3 93 6.8 44.3
05:55 1014 29.94 844 24.92 7.9 46.3 93 6.8 44.3
06:00 1014 29.94 844 24.92 7.9 46.3 92 6.8 44.2
06:05 1014 29.94 844 24.92 7.9 46.3 93 6.8 44.3
06:10 1014 29.94 844 24.92 7.9 46.3 93 6.8 44.2
06:15 1015 29.97 844 24.92 7.9 46.2 93 6.8 44.2
06:20 1015 29.97 844 24.92 7.9 46.2 93 6.8 44.2
06:25 1015 29.97 844 24.92 7.9 46.3 93 6.8 44.2
06:30 1015 29.97 844 24.92 7.9 46.2 93 6.8 44.2
06:35 1014 29.94 844 24.92 7.9 46.2 92 6.7 44.1
06:40 1014 29.94 844 24.92 7.9 46.2 93 6.7 44.1
06:45 1014 29.94 844 24.92 7.9 46.2 92 6.7 44.1
06:50 1015 29.97 844 24.92 7.9 46.2 92 6.7 44.1
06:55 1015 29.97 844 24.92 7.9 46.2 92 6.7 44.1
07:00 1015 29.97 844 24.92 7.9 46.2 92 6.7 44
07:05 1015 29.97 844 24.92 7.9 46.1 92 6.7 44
07:10 1015 29.97 844 24.92 7.9 46.1 92 6.6 44
07:15 1015 29.97 844 24.92 7.9 46.1 92 6.6 43.9
07:20 1015 29.97 844 24.92 7.9 46.2 92 6.6 44
07:25 1014 29.94 844 24.92 7.9 46.2 92 6.7 44
07:30 1014 29.94 844 24.92 7.9 46.2 92 6.7 44
07:35 1014 29.94 844 24.92 7.9 46.1 92 6.6 43.8
07:40 1014 29.94 844 24.92 7.8 46.1 92 6.6 43.8
07:45 1014 29.94 844 24.92 7.8 46 92 6.6 43.8
07:50 1015 29.97 844 24.92 7.8 46 92 6.6 43.8
07:55 1015 29.97 844 24.92 7.9 46.1 92 6.7 44
08:00 1015 29.97 844 24.92 7.8 46.1 92 6.6 43.9
08:05 1015 29.97 844 24.92 7.9 46.1 92 6.6 43.9
08:10 1015 29.97 844 24.92 7.9 46.3 91 6.6 43.8
08:15 1015 29.97 844 24.92 8 46.4 91 6.6 43.8
08:20 1015 29.97 844 24.92 8.1 46.5 90 6.6 43.8
08:25 1015 29.97 844 24.92 8.2 46.7 90 6.5 43.8
08:30 1015 29.97 844 24.92 8.1 46.6 90 6.6 43.8
08:35 1015 29.97 844 24.92 8.1 46.7 90 6.6 43.8
08:40 1015 29.97 844 24.92 8.2 46.8 90 6.6 43.9
08:45 1015 29.97 844 24.92 8.2 46.7 90 6.6 43.9
08:50 1015 29.97 844 24.92 8.2 46.7 90 6.6 43.8
08:55 1015 29.97 844 24.92 8.2 46.7 90 6.7 44
09:00 1015 29.97 844 24.92 8.2 46.7 90 6.7 44
09:05 1015 29.97 844 24.92 8.2 46.7 90 6.7 44.1
09:10 1015 29.97 844 24.92 8.2 46.8 90 6.7 44
09:15 1015 29.97 844 24.92 8.2 46.7 90 6.7 44.1
09:20 1015 29.97 844 24.92 8.2 46.8 90 6.7 44.1
09:25 1015 29.97 844 24.92 8.3 46.9 90 6.7 44.1
09:30 1015 29.97 845 24.95 8.2 46.8 90 6.6 43.9
09:35 1016 30 845 24.95 8.1 46.7 90 6.6 43.9
09:40 1016 30 845 24.95 8.1 46.6 90 6.7 44
09:45 1015 29.97 845 24.95 8.1 46.6 91 6.7 44
09:50 1015 29.97 845 24.95 8.2 46.7 91 6.7 44.1
09:55 1016 30 845 24.95 8.3 47 91 6.9 44.4
10:00 1016 30 845 24.95 8.2 46.8 90 6.7 44.1
10:05 1016 30 845 24.95 8.1 46.5 91 6.6 44
10:10 1016 30 845 24.95 8.1 46.6 91 6.7 44
10:15 1016 30 845 24.95 8.3 46.9 91 6.8 44.3
10:20 1016 30 845 24.95 8.3 47 90 6.8 44.2
10:25 1016 30 845 24.95 8.4 47.1 91 6.9 44.5
10:30 1015 29.97 845 24.95 8.5 47.2 90 6.9 44.4
10:35 1015 29.97 845 24.95 8.5 47.2 91 7 44.7
10:40 1015 29.97 844 24.92 8.6 47.4 91 7.1 44.8
10:45 1015 29.97 844 24.92 8.7 47.6 91 7.2 45
10:50 1015 29.97 845 24.95 8.6 47.5 91 7.2 44.9
10:55 1016 30 845 24.95 8.7 47.6 90 7.1 44.8
11:00 1016 30 845 24.95 8.6 47.5 90 7.1 44.8
11:05 1016 30 845 24.95 8.6 47.5 90 7.1 44.8
11:10 1016 30 845 24.95 8.6 47.5 90 7 44.6
11:15 1016 30 845 24.95 8.6 47.5 89 7 44.6
11:20 1015 29.97 845 24.95 8.8 47.8 89 7.1 44.8
11:25 1015 29.97 844 24.92 8.8 47.8 88 7 44.5
11:30 1015 29.97 845 24.95 8.8 47.8 88 7 44.5
11:35 1016 30 845 24.95 8.9 47.9 89 7.1 44.9
11:40 1016 30 845 24.95 8.9 47.9 89 7.1 44.9
11:45 1016 30 845 24.95 8.8 47.9 89 7.1 44.8
11:50 1016 30 845 24.95 9 48.2 88 7.2 44.9
11:55 1016 30 845 24.95 9 48.2 89 7.3 45.2
12:00 1016 30 845 24.95 8.9 48 90 7.3 45.2
12:05 1016 30 845 24.95 8.9 48 90 7.3 45.1
12:10 1016 30 845 24.95 8.8 47.9 89 7.2 44.9
12:15 1016 30 845 24.95 8.8 47.9 90 7.2 45
12:20 1016 30 845 24.95 8.9 48.1 89 7.2 45
12:25 1016 30 845 24.95 8.8 47.9 89 7.1 44.9
12:30 1016 30 845 24.95 8.7 47.7 90 7.1 44.8
12:35 1016 30 845 24.95 8.6 47.5 90 7 44.7
12:40 1016 30 845 24.95 8.6 47.5 89 7 44.5
12:45 1016 30 845 24.95 8.7 47.6 90 7 44.7
12:50 1016 30 845 24.95 8.7 47.7 88 6.9 44.4
12:55 1016 30 845 24.95 8.7 47.7 88 6.9 44.4
13:00 1016 30 845 24.95 8.8 47.8 88 6.8 44.3
13:05 1016 30 846 24.98 8.9 48 87 6.9 44.4
13:10 1016 30 846 24.98 9.1 48.5 86 6.9 44.4
13:15 1016 30 846 24.98 9.3 48.8 84 6.8 44.3
13:20 1017 30.03 846 24.98 9.4 48.9 84 6.8 44.3
13:25 1017 30.03 846 24.98 9.3 48.8 82 6.5 43.6
13:30 1016 30 846 24.98 9.2 48.5 83 6.4 43.6
13:35 1016 30 846 24.98 9.2 48.6 82 6.4 43.5
13:40 1016 30 846 24.98 9.3 48.8 82 6.3 43.4
13:45 1016 30 845 24.95 9.5 49 83 6.7 44
13:50 1016 30 845 24.95 9.7 49.5 81 6.5 43.8
13:55 1016 30 845 24.95 9.7 49.5 81 6.5 43.8
14:00 1015 29.97 845 24.95 9.8 49.6 80 6.6 43.9
14:05 1016 30 845 24.95 9.8 49.6 80 6.5 43.7
14:10 1016 30 846 24.98 9.7 49.4 79 6.3 43.3
14:15 1016 30 845 24.95 9.7 49.5 79 6.3 43.4
14:20 1016 30 845 24.95 9.7 49.4 81 6.7 44
14:25 1016 30 845 24.95 9.8 49.6 79 6.3 43.4
14:30 1016 30 845 24.95 9.8 49.7 80 6.5 43.6
14:35 1016 30 845 24.95 9.8 49.6 81 6.6 43.9
14:40 1016 30 845 24.95 9.8 49.7 79 6.4 43.5
14:45 1016 30 845 24.95 9.9 49.8 79 6.4 43.6
14:50 1016 30 845 24.95 10 49.9 78 6.3 43.3
14:55 1016 30 845 24.95 10 50 78 6.5 43.6
15:00 1016 30 845 24.95 10.2 50.3 77 6.3 43.3
15:05 1016 30 845 24.95 10.3 50.6 77 6.5 43.6
15:10 1016 30 845 24.95 10.5 50.8 76 6.4 43.5
15:15 1016 30 845 24.95 10.7 51.2 75 6.4 43.6
15:20 1016 30 845 24.95 11 51.8 74 6.6 43.8
15:25 1016 30 845 24.95 11.2 52.1 72 6.3 43.3
15:30 1016 30 845 24.95 11.5 52.7 69 6 42.8
15:35 1016 30 846 24.98 11.7 53.1 68 6.2 43.1
15:40 1017 30.03 846 24.98 11.5 52.7 68 5.9 42.6
15:45 1017 30.03 846 24.98 11.3 52.3 69 5.8 42.4
15:50 1017 30.03 846 24.98 11.4 52.5 67 5.5 42
15:55 1017 30.03 846 24.98 11.6 52.9 68 5.8 42.5
16:00 1016 30 846 24.98 11.8 53.2 68 6.1 42.9
16:05 1016 30 846 24.98 11.7 53 67 5.9 42.5
16:10 1016 30 846 24.98 11.8 53.3 66 5.8 42.5
16:15 1017 30.03 846 24.98 11.5 52.8 68 5.9 42.5
16:20 1017 30.03 846 24.98 11.3 52.3 68 5.6 42.1
16:25 1017 30.03 846 24.98 11.3 52.3 68 5.6 42
16:30 1017 30.03 846 24.98 11.7 53 64 5.2 41.4
16:35 1017 30.03 846 24.98 11.9 53.4 63 5.1 41.2
16:40 1017 30.03 846 24.98 11.7 53 65 5.3 41.5
16:45 1017 30.03 846 24.98 11.6 52.9 69 6.3 43.3
16:50 1017 30.03 846 24.98 11.3 52.3 71 6.2 43.1
16:55 1017 30.03 846 24.98 11.3 52.3 70 6.1 42.9
17:00 1017 30.03 846 24.98 11 51.8 71 6 42.8
17:05 1017 30.03 846 24.98 11 51.8 72 6.1 43
17:10 1016 30 846 24.98 11.5 52.6 70 6.2 43.2
17:15 1016 30 846 24.98 11.3 52.4 71 6.2 43.1
17:20 1016 30 845 24.95 11.5 52.7 70 6.3 43.3
17:25 1016 30 845 24.95 11.6 52.9 70 6.3 43.3
17:30 1016 30 845 24.95 11.5 52.8 71 6.5 43.7
17:35 1016 30 845 24.95 11.4 52.5 70 6.2 43.1
17:40 1016 30 846 24.98 11.3 52.3 72 6.3 43.4
17:45 1016 30 846 24.98 11.1 52 71 6.1 43
17:50 1016 30 845 24.95 11 51.8 71 6 42.8
17:55 1016 30 845 24.95 11.1 51.9 71 5.9 42.7
18:00 1016 30 845 24.95 11.1 52 71 6.1 42.9
18:05 1016 30 845 24.95 11 51.8 72 6.2 43.2
18:10 1016 30 846 24.98 10.9 51.6 72 6.1 43.1
18:15 1017 30.03 846 24.98 10.8 51.4 73 6.1 42.9
18:20 1017 30.03 846 24.98 10.8 51.4 73 6.1 42.9
18:25 1017 30.03 846 24.98 10.8 51.4 73 6.2 43.1
18:30 1017 30.03 846 24.98 10.8 51.5 72 6 42.9
18:35 1017 30.03 846 24.98 10.8 51.5 73 6.3 43.3
18:40 1017 30.03 846 24.98 10.8 51.5 73 6.3 43.3
18:45 1017 30.03 846 24.98 10.8 51.5 73 6.3 43.3
18:50 1017 30.03 846 24.98 10.9 51.5 73 6.3 43.4
18:55 1017 30.03 846 24.98 10.9 51.6 73 6.3 43.4
19:00 1017 30.03 846 24.98 10.9 51.6 74 6.5 43.7
19:05 1017 30.03 846 24.98 10.8 51.5 74 6.5 43.7
19:10 1017 30.03 846 24.98 10.8 51.4 74 6.4 43.5
19:15 1017 30.03 846 24.98 10.7 51.2 74 6.2 43.1
19:20 1017 30.03 846 24.98 10.6 51 74 6.2 43.1
19:25 1017 30.03 846 24.98 10.4 50.8 75 6.2 43.2
19:30 1017 30.03 846 24.98 10.3 50.6 75 6.2 43.1
19:35 1017 30.03 846 24.98 10.3 50.5 75 6.1 43
19:40 1017 30.03 846 24.98 10.3 50.5 76 6.2 43.1
19:45 1017 30.03 846 24.98 10.2 50.3 76 6.2 43.2
19:50 1017 30.03 846 24.98 10 50 77 6.3 43.3
19:55 1017 30.03 846 24.98 10 49.9 78 6.3 43.3
20:00 1017 30.03 846 24.98 9.9 49.8 78 6.2 43.1
20:05 1017 30.03 846 24.98 9.8 49.6 78 6.2 43.1
20:10 1017 30.03 846 24.98 9.8 49.6 79 6.3 43.3
20:15 1017 30.03 846 24.98 9.8 49.6 79 6.3 43.3
20:20 1017 30.03 846 24.98 9.8 49.6 79 6.3 43.3
20:25 1017 30.03 846 24.98 9.7 49.5 79 6.2 43.2
20:30 1017 30.03 846 24.98 9.7 49.5 78 6.2 43.1
20:35 1017 30.03 846 24.98 9.7 49.5 77 5.9 42.7
20:40 1017 30.03 846 24.98 9.8 49.7 78 6.2 43.2
20:45 1017 30.03 846 24.98 9.9 49.8 76 5.8 42.5
20:50 1017 30.03 846 24.98 10 49.9 75 5.7 42.2
20:55 1017 30.03 847 25.01 10 50 75 5.8 42.4
21:00 1017 30.03 847 25.01 10 49.9 74 5.7 42.2
21:05 1017 30.03 847 25.01 9.9 49.8 79 6.5 43.7
21:10 1018 30.06 847 25.01 9.6 49.2 80 6.3 43.4
21:15 1018 30.06 847 25.01 9.5 49 81 6.3 43.4
21:20 1018 30.06 847 25.01 9.5 49 79 5.9 42.7
21:25 1018 30.06 847 25.01 9.6 49.3 78 5.9 42.6
21:30 1018 30.06 847 25.01 9.7 49.4 78 5.9 42.7
21:35 1018 30.06 847 25.01 9.7 49.5 78 6 42.9
21:40 1018 30.06 847 25.01 9.7 49.5 78 6.1 42.9
21:45 1018 30.06 847 25.01 9.7 49.4 79 6.1 43
21:50 1018 30.06 847 25.01 9.6 49.3 78 6 42.8
21:55 1018 30.06 847 25.01 9.5 49.2 79 6.1 42.9
22:00 1018 30.06 847 25.01 9.5 49.1 79 6.1 42.9
22:05 1018 30.06 847 25.01 9.5 49.2 78 6 42.8
22:10 1018 30.06 847 25.01 9.6 49.3 78 5.9 42.6
22:15 1017 30.03 847 25.01 9.7 49.4 77 5.9 42.6
22:20 1017 30.03 847 25.01 9.7 49.5 77 6 42.7
22:25 1017 30.03 846 24.98 9.6 49.3 77 5.9 42.6
22:30 1017 30.03 846 24.98 9.6 49.3 77 5.8 42.4
22:35 1017 30.03 846 24.98 9.7 49.4 77 5.8 42.4
22:40 1017 30.03 846 24.98 9.7 49.4 76 5.6 42.2
22:45 1017 30.03 846 24.98 9.7 49.5 75 5.6 42.1
22:50 1017 30.03 846 24.98 9.7 49.5 75 5.5 41.8
22:55 1017 30.03 846 24.98 9.9 49.8 74 5.4 41.8
23:00 1017 30.03 846 24.98 9.9 49.9 74 5.5 41.9
23:05 1017 30.03 846 24.98 9.9 49.9 73 5.4 41.8
23:10 1016 30 846 24.98 9.9 49.8 75 5.6 42.2
23:15 1016 30 845 24.95 9.8 49.7 75 5.6 42.1
23:20 1016 30 846 24.98 9.8 49.7 75 5.6 42.1
23:25 1017 30.03 846 24.98 9.9 49.7 76 5.8 42.4
23:30 1017 30.03 847 25.01 9.8 49.6 77 6 42.8
23:35 1017 30.03 847 25.01 9.6 49.3 78 6 42.8
23:40 1017 30.03 846 24.98 9.6 49.2 78 6 42.8
23:45 1017 30.03 846 24.98 9.6 49.2 78 6 42.8
23:50 1017 30.03 847 25.01 9.6 49.2 79 6 42.9
23:55 1018 30.06 847 25.01 9.6 49.2 79 6.1 42.9
24:00 1017 30.03 846 24.98 9.5 49.2 79 6.1 42.9